Monday, September 24, 2018, 9:58 PM GMT
Back to Local

CWBK, Caribou Point Meteorological Aeronautical Presentation System

Location: , , Canada Lat: 45.767
Local Time: 9:58 PM GMT (21:58 GMT) Lon: -62.683
Time Zone: GMT Elev: 6 ft

Show me the last for .
Show Coded

Time T Td Feel RH Dir Speed Gust Alt SLP Vis Weather Sky Remarks
2018-09-24 21:00 52 35 - 52 350° 14 - - 30.57 0 Peak wind: 21 mph (19 kts) from 320° at 23 min
2018-09-24 20:00 52 31 - 44 330° 16 - - 30.56 0 Peak wind: 21 mph (19 kts) from 330° at 16 min
2018-09-24 19:00 53 31 - 43 320° 16 - - 30.55 0 Peak wind: 21 mph (19 kts) from 320° at 36 min
2018-09-24 18:00 53 34 - 48 320° 16 - - 30.55 0 Peak wind: 21 mph (19 kts) from 300° at 18 min
2018-09-24 17:00 51 32 - 47 310° 18 - - 30.54 0 Peak wind: 21 mph (19 kts) from 310° at 36 min
2018-09-24 16:00 52 31 - 44 320° 17 - - 30.54 0 Peak wind: 23 mph (20 kts) from 310° at 21 min
2018-09-24 15:00 51 31 - 46 310° 15 - - 30.54 0 Peak wind: 20 mph (18 kts) from 310° at 52 min
2018-09-24 14:00 51 33 - 50 330° 16 - - 30.53 0 Peak wind: 20 mph (18 kts) from 340° at 23 min
2018-09-24 13:00 50 29 44 44 340° 15 - - 30.51 0 Peak wind: 24 mph (21 kts) from 330° at 08 min
2018-09-24 12:00 49 33 43 52 340° 17 - - 30.48 0 Peak wind: 25 mph (22 kts) from 340° at 22 min
2018-09-24 11:00 49 32 41 51 340° 20 26 - 30.46 0 Peak wind: 26 mph (23 kts) from 340° at 52 min
2018-09-24 10:00 48 31 42 51 340° 18 - - 30.42 0 Peak wind: 25 mph (22 kts) from 350° at 01 min
2018-09-24 09:00 49 31 42 51 340° 21 - - 30.39 0 Peak wind: 27 mph (24 kts) from 340° at 08 min
2018-09-24 08:00 49 32 41 50 350° 21 28 - 30.37 0 Peak wind: 27 mph (24 kts) from 340° at 58 min
2018-09-24 07:00 50 36 43 59 340° 22 - - 30.34 0 Peak wind: 26 mph (23 kts) from 340° at 44 min
2018-09-24 06:00 50 40 42 68 350° 21 26 - 30.32 0 Peak wind: 27 mph (24 kts) from 330° at 41 min
2018-09-24 05:00 49 43 43 78 330° 20 - - 30.32 0 Peak wind: 28 mph (25 kts) from 350° at 05 min
2018-09-24 04:00 51 42 - 71 340° 24 30 - 30.29 0 Peak wind: 29 mph (26 kts) from 330° at 53 min
2018-09-24 03:00 53 43 - 67 350° 22 - - 30.26 0 Peak wind: 27 mph (24 kts) from 340° at 22 min
2018-09-24 02:00 54 47 - 75 350° 20 - - 30.24 0 Peak wind: 25 mph (22 kts) from 350° at 48 min
2018-09-24 01:00 56 46 - 67 360° 17 - - 30.20 0 Peak wind: 24 mph (21 kts) from 350° at 39 min
2018-09-24 00:00 55 40 - 55 280° 14 - - 30.18 0 None
2018-09-23 23:00 57 38 - 50 270° 8 - - 30.16 0 None
2018-09-23 22:00 60 40 - 49 270° 8 - - 30.14 0 None

Support USWX by starting your Amazon purchase here.